Time;durP1;ratioP1;P1;durP2;ratioP2;P2;SDS_P1;SDS_P2;PMS_P1;PMS_P2;Temp;Humidity;BMP_temperature;BMP_pressure;BME280_temperature;BME280_humidity;BME280_pressure;Samples;Min_cycle;Max_cycle;Signal;HPM_P1;HPM_P2
2023/07/26 00:01:30;;;;;;;;;;;;;;;13.82;77.33;101092.59;5029813;28;1428;-79
2023/07/26 00:03:58;;;;;;;;;;;;;;;13.79;77.06;101092.88;5040606;28;1218;-79
2023/07/26 00:06:23;;;;;;;;;;;;;;;13.75;77.58;101081.06;5049360;28;1220;-79
2023/07/26 00:08:48;;;;;;;;;;;;;;;13.81;77.41;101080.50;5031767;28;1171;-80
2023/07/26 00:11:14;;;;;;;;;;;;;;;13.88;77.98;101069.50;5033011;28;1193;-80
2023/07/26 00:13:39;;;;;;;;;;;;;;;13.90;78.18;101072.81;5031672;28;1890;-79
2023/07/26 00:16:05;;;;;;;;;;;;;;;13.86;78.43;101063.63;5033223;28;1910;-79
2023/07/26 00:18:30;;;;;;;;;;;;;;;13.89;78.31;101065.97;5038900;28;1694;-80
2023/07/26 00:20:56;;;;;;;;;;;;;;;13.90;78.72;101059.78;5033838;28;1177;-80
2023/07/26 00:23:21;;;;;;;;;;;;;;;13.86;78.51;101066.22;5030296;28;1210;-79
2023/07/26 00:25:46;;;;;;;;;;;;;;;13.76;79.20;101061.88;5040052;28;1175;-79
2023/07/26 00:28:11;;;;;;;;;;;;;;;13.71;79.29;101068.47;5033829;28;1209;-80
2023/07/26 00:30:37;;;;;;;;;;;;;;;13.61;79.30;101065.88;5027899;28;1420;-80
2023/07/26 00:33:02;;;;;;;;;;;;;;;13.58;80.00;101062.72;5017126;28;1190;-80
2023/07/26 00:35:32;;;;;;;;;;;;;;;13.59;80.38;101062.59;5020212;28;1336;-80
2023/07/26 00:37:57;;;;;;;;;;;;;;;13.55;81.12;101058.59;5027183;28;1973;-80
2023/07/26 00:40:22;;;;;;;;;;;;;;;13.48;80.83;101063.56;5034059;28;1146;-80
2023/07/26 00:42:47;;;;;;;;;;;;;;;13.44;81.38;101061.34;5019159;28;1320;-80
2023/07/26 00:45:13;;;;;;;;;;;;;;;13.40;81.38;101062.59;5039778;28;1467;-80
2023/07/26 00:47:38;;;;;;;;;;;;;;;13.40;81.77;101059.97;5069089;28;1396;-80
2023/07/26 00:50:04;;;;;;;;;;;;;;;13.50;81.84;101066.00;5069619;28;1253;-80
2023/07/26 00:52:29;;;;;;;;;;;;;;;13.54;81.94;101064.78;5061108;28;2160;-80
2023/07/26 00:54:58;;;;;;;;;;;;;;;13.49;81.34;101061.78;5038605;28;1157;-80
2023/07/26 00:57:24;;;;;;;;;;;;;;;13.46;82.26;101064.63;5036019;28;1954;-80
2023/07/26 00:59:49;;;;;;;;;;;;;;;13.43;82.57;101067.53;5035476;28;1162;-80
2023/07/26 01:02:14;;;;;;;;;;;;;;;13.44;82.40;101071.78;5048879;28;1680;-80
2023/07/26 01:04:42;;;;;;;;;;;;;;;13.45;82.84;101063.00;5031909;28;1537;-80
2023/07/26 01:07:23;;;;;;;;;;;;;;;13.50;83.04;101060.81;5029094;28;1844;-80
2023/07/26 01:09:59;;;;;;;;;;;;;;;13.51;82.67;101059.84;5032254;28;1518;-80
2023/07/26 01:12:32;;;;;;;;;;;;;;;13.45;82.81;101066.41;5040538;28;1196;-80
2023/07/26 01:15:00;;;;;;;;;;;;;;;13.43;82.99;101057.94;5039151;28;1251;-80
2023/07/26 01:17:25;;;;;;;;;;;;;;;13.39;82.78;101063.56;5031877;28;1953;-80
2023/07/26 01:19:51;;;;;;;;;;;;;;;13.33;83.23;101064.09;5029281;28;1295;-80
2023/07/26 01:22:16;;;;;;;;;;;;;;;13.32;83.86;101062.47;5031518;28;1205;-80
2023/07/26 01:24:41;;;;;;;;;;;;;;;13.39;84.44;101055.72;5037193;28;1097;-80
2023/07/26 01:27:06;;;;;;;;;;;;;;;13.46;83.80;101059.44;5037793;28;1167;-79
2023/07/26 01:29:32;;;;;;;;;;;;;;;13.49;83.99;101064.38;5023559;28;1248;-80
2023/07/26 01:31:57;;;;;;;;;;;;;;;13.54;83.72;101064.78;5032504;28;1078;-80
2023/07/26 01:34:23;;;;;;;;;;;;;;;13.57;83.89;101064.50;5038037;28;1159;-80
2023/07/26 01:36:49;;;;;;;;;;;;;;;13.60;83.75;101061.63;5026130;28;1874;-80
2023/07/26 01:39:15;;;;;;;;;;;;;;;13.60;83.80;101051.19;5029568;28;1118;-80
2023/07/26 01:41:41;;;;;;;;;;;;;;;13.65;84.07;101054.22;5012135;28;1205;-80
2023/07/26 01:44:06;;;;;;;;;;;;;;;13.66;83.25;101055.84;5009147;28;1476;-79
2023/07/26 01:46:31;;;;;;;;;;;;;;;13.59;83.91;101053.91;5007688;28;1053;-80
2023/07/26 01:48:56;;;;;;;;;;;;;;;13.58;84.09;101053.09;5007368;28;1253;-80
2023/07/26 01:51:22;;;;;;;;;;;;;;;13.59;84.21;101051.31;5005496;28;1347;-80
2023/07/26 01:53:47;;;;;;;;;;;;;;;13.61;84.27;101052.84;5009481;28;1134;-80
2023/07/26 01:56:12;;;;;;;;;;;;;;;13.61;84.06;101052.03;5016101;28;1914;-80
2023/07/26 01:58:37;;;;;;;;;;;;;;;13.59;84.15;101049.56;5012533;28;1122;-80
2023/07/26 02:01:03;;;;;;;;;;;;;;;13.59;83.72;101054.78;5013598;28;1188;-80
2023/07/26 02:03:29;;;;;;;;;;;;;;;13.57;84.01;101056.69;5011260;28;1119;-81
2023/07/26 02:05:54;;;;;;;;;;;;;;;13.52;83.99;101059.69;5017660;28;1178;-80
2023/07/26 02:08:19;;;;;;;;;;;;;;;13.43;84.17;101055.31;5007137;28;1153;-80
2023/07/26 02:10:45;;;;;;;;;;;;;;;13.38;84.49;101051.50;5011181;28;1428;-81
2023/07/26 02:13:10;;;;;;;;;;;;;;;13.38;84.55;101056.69;5009457;28;1001;-80
2023/07/26 02:15:35;;;;;;;;;;;;;;;13.37;84.53;101055.88;5011365;28;968;-80
2023/07/26 02:18:00;;;;;;;;;;;;;;;13.35;84.81;101051.75;5044022;28;1969;-80
2023/07/26 02:20:26;;;;;;;;;;;;;;;13.33;84.96;101061.50;5004975;28;1173;-80
2023/07/26 02:22:51;;;;;;;;;;;;;;;13.31;85.30;101055.63;5009793;28;1373;-80
2023/07/26 02:25:17;;;;;;;;;;;;;;;13.29;85.24;101055.72;5006870;28;1010;-80
2023/07/26 02:27:42;;;;;;;;;;;;;;;13.26;85.52;101053.41;5011846;28;1193;-80
2023/07/26 02:30:07;;;;;;;;;;;;;;;13.20;86.08;101049.53;5014028;28;1133;-80
2023/07/26 02:32:33;;;;;;;;;;;;;;;13.15;85.67;101046.53;5011849;28;1098;-80
2023/07/26 02:34:58;;;;;;;;;;;;;;;13.10;85.84;101047.88;5022196;28;1148;-80
2023/07/26 02:37:23;;;;;;;;;;;;;;;13.06;85.83;101047.31;5010765;28;1957;-79
2023/07/26 02:39:48;;;;;;;;;;;;;;;13.03;85.91;101040.63;5006898;28;1482;-80
2023/07/26 02:42:14;;;;;;;;;;;;;;;12.99;86.48;101039.22;5017246;28;1190;-80
2023/07/26 02:44:39;;;;;;;;;;;;;;;12.95;86.36;101044.84;5012672;28;1479;-80
2023/07/26 02:47:04;;;;;;;;;;;;;;;12.89;87.14;101040.16;5039721;28;1362;-80
2023/07/26 02:49:32;;;;;;;;;;;;;;;12.85;87.06;101037.03;5001818;28;1657;-80
2023/07/26 02:51:57;;;;;;;;;;;;;;;12.84;87.44;101044.97;5011714;28;1205;-80
2023/07/26 02:54:22;;;;;;;;;;;;;;;12.83;86.72;101045.91;5012981;28;1129;-80
2023/07/26 02:56:47;;;;;;;;;;;;;;;12.81;86.91;101045.25;5015696;28;1934;-80
2023/07/26 02:59:13;;;;;;;;;;;;;;;12.80;86.88;101046.19;5012746;28;1130;-80
2023/07/26 03:01:38;;;;;;;;;;;;;;;12.77;86.76;101042.06;5005392;28;1503;-80
2023/07/26 03:04:03;;;;;;;;;;;;;;;12.73;86.83;101046.75;5015773;28;1219;-80
2023/07/26 03:06:28;;;;;;;;;;;;;;;12.71;86.98;101051.25;5013482;28;1193;-81
2023/07/26 03:08:53;;;;;;;;;;;;;;;12.68;86.90;101054.13;5014215;28;1172;-80
2023/07/26 03:11:19;;;;;;;;;;;;;;;12.65;87.55;101059.56;5007101;28;1451;-80
2023/07/26 03:13:44;;;;;;;;;;;;;;;12.63;87.35;101045.88;5011901;28;1161;-79
2023/07/26 03:16:09;;;;;;;;;;;;;;;12.63;87.44;101045.06;5004940;28;1959;-80
2023/07/26 03:18:34;;;;;;;;;;;;;;;12.62;87.23;101054.66;5049338;28;1215;-80
2023/07/26 03:21:00;;;;;;;;;;;;;;;12.60;87.13;101053.13;5041973;28;1352;-80
2023/07/26 03:23:25;;;;;;;;;;;;;;;12.59;86.82;101059.28;5012317;28;1202;-81
2023/07/26 03:25:50;;;;;;;;;;;;;;;12.54;87.25;101062.28;5016669;28;1134;-80
2023/07/26 03:28:15;;;;;;;;;;;;;;;12.57;87.21;101056.81;5045119;28;1412;-80
2023/07/26 03:30:41;;;;;;;;;;;;;;;12.55;87.23;101068.31;5017937;28;1298;-80
2023/07/26 03:33:07;;;;;;;;;;;;;;;12.54;86.91;101071.88;5015575;28;1136;-80
2023/07/26 03:35:32;;;;;;;;;;;;;;;12.49;87.19;101064.44;5009572;28;1189;-80
2023/07/26 03:37:58;;;;;;;;;;;;;;;12.47;87.23;101061.16;5020528;28;1961;-80
2023/07/26 03:40:23;;;;;;;;;;;;;;;12.46;87.42;101064.72;5006349;28;1054;-79
2023/07/26 03:42:48;;;;;;;;;;;;;;;12.39;86.85;101063.63;5015844;28;1385;-80
2023/07/26 03:45:13;;;;;;;;;;;;;;;12.33;87.31;101058.91;5013259;28;1125;-79
2023/07/26 03:47:39;;;;;;;;;;;;;;;12.29;87.93;101057.53;5015255;28;1154;-80
2023/07/26 03:50:04;;;;;;;;;;;;;;;12.26;87.95;101063.81;5008899;28;1212;-79
2023/07/26 03:52:29;;;;;;;;;;;;;;;12.25;88.05;101062.16;5006797;28;1415;-80
2023/07/26 03:54:55;;;;;;;;;;;;;;;12.24;87.51;101065.72;5013466;28;956;-80
2023/07/26 03:57:20;;;;;;;;;;;;;;;12.22;87.62;101068.47;5011133;28;1871;-80
2023/07/26 03:59:45;;;;;;;;;;;;;;;12.21;88.24;101066.81;5008780;28;1327;-79
2023/07/26 04:02:11;;;;;;;;;;;;;;;12.20;88.06;101064.34;5009222;28;1370;-80
2023/07/26 04:04:36;;;;;;;;;;;;;;;12.18;88.27;101061.88;5036829;28;1310;-80
2023/07/26 04:07:02;;;;;;;;;;;;;;;12.17;87.90;101070.63;5043590;28;1283;-80
2023/07/26 04:09:27;;;;;;;;;;;;;;;12.15;87.81;101072.50;5045445;28;1420;-80
2023/07/26 04:11:53;;;;;;;;;;;;;;;12.15;88.16;101072.50;5009810;28;1174;-80
2023/07/26 04:14:18;;;;;;;;;;;;;;;12.13;87.77;101069.22;5009755;28;1373;-79
2023/07/26 04:16:44;;;;;;;;;;;;;;;12.12;88.18;101057.19;5010358;28;1902;-80
2023/07/26 04:19:09;;;;;;;;;;;;;;;12.12;88.12;101059.78;5015856;28;1563;-80
2023/07/26 04:21:34;;;;;;;;;;;;;;;12.12;87.87;101067.59;5012237;28;1447;-80
2023/07/26 04:23:59;;;;;;;;;;;;;;;12.13;88.43;101061.44;5014304;28;1175;-80
2023/07/26 04:26:25;;;;;;;;;;;;;;;12.15;88.38;101056.91;5010909;28;1235;-80
2023/07/26 04:28:52;;;;;;;;;;;;;;;12.16;88.58;101062.97;5011954;28;1133;-79
2023/07/26 04:31:17;;;;;;;;;;;;;;;12.21;87.81;101051.22;5016260;28;1322;-80
2023/07/26 04:33:43;;;;;;;;;;;;;;;12.25;88.20;101050.94;5010702;28;1335;-79
2023/07/26 04:36:08;;;;;;;;;;;;;;;12.27;87.62;101064.63;5017614;28;1981;-79
2023/07/26 04:38:33;;;;;;;;;;;;;;;12.27;88.12;101056.84;5003486;28;1175;-80
2023/07/26 04:40:58;;;;;;;;;;;;;;;12.28;88.18;101055.91;5023012;28;1592;-79
2023/07/26 04:43:24;;;;;;;;;;;;;;;12.29;87.65;101052.34;5011156;28;1250;-79
2023/07/26 04:45:49;;;;;;;;;;;;;;;12.34;87.97;101060.56;5013653;28;1288;-79
2023/07/26 04:48:15;;;;;;;;;;;;;;;12.35;88.13;101077.81;5019436;28;1265;-79
2023/07/26 04:50:41;;;;;;;;;;;;;;;12.36;88.40;101066.47;5016078;28;1201;-80
2023/07/26 04:53:06;;;;;;;;;;;;;;;12.36;88.28;101061.25;5008469;28;1999;-80
2023/07/26 04:55:32;;;;;;;;;;;;;;;12.40;88.35;101070.47;5003240;28;1381;-80
2023/07/26 04:57:57;;;;;;;;;;;;;;;12.40;88.04;101070.47;5010213;28;1906;-81
2023/07/26 05:00:22;;;;;;;;;;;;;;;12.38;88.33;101062.75;5000856;28;1201;-81
2023/07/26 05:02:48;;;;;;;;;;;;;;;12.37;88.29;101061.13;5006740;28;1166;-80
2023/07/26 05:05:13;;;;;;;;;;;;;;;12.38;88.82;101067.16;5010290;28;1184;-81
2023/07/26 05:07:38;;;;;;;;;;;;;;;12.44;88.72;101061.41;5010455;28;1209;-80
2023/07/26 05:10:03;;;;;;;;;;;;;;;12.48;89.14;101066.22;5004864;28;1170;-81
2023/07/26 05:12:29;;;;;;;;;;;;;;;12.53;88.76;101065.84;5014655;28;1517;-81
2023/07/26 05:14:54;;;;;;;;;;;;;;;12.58;88.68;101063.66;5006973;28;1150;-80
2023/07/26 05:17:19;;;;;;;;;;;;;;;12.62;89.00;101059.84;5019303;28;1898;-81
2023/07/26 05:19:44;;;;;;;;;;;;;;;12.65;88.36;101064.78;5007550;28;1351;-81
2023/07/26 05:22:10;;;;;;;;;;;;;;;12.67;88.63;101062.03;5007331;28;2380;-81
2023/07/26 05:24:36;;;;;;;;;;;;;;;12.70;88.51;101062.59;5011541;28;1157;-81
2023/07/26 05:27:01;;;;;;;;;;;;;;;12.72;88.44;101060.69;5039886;28;1296;-81
2023/07/26 05:29:26;;;;;;;;;;;;;;;12.75;88.76;101065.63;5009542;28;1218;-81
2023/07/26 05:31:51;;;;;;;;;;;;;;;12.81;88.77;101058.25;5005433;28;1240;-81
2023/07/26 05:34:17;;;;;;;;;;;;;;;12.87;88.78;101062.94;5015078;28;1366;-80
2023/07/26 05:36:42;;;;;;;;;;;;;;;12.93;88.74;101062.38;5007251;28;1955;-81
2023/07/26 05:39:07;;;;;;;;;;;;;;;12.95;88.79;101063.06;5039240;28;1416;-80
2023/07/26 05:41:32;;;;;;;;;;;;;;;12.99;88.85;101061.84;5005246;28;1205;-81
2023/07/26 05:44:00;;;;;;;;;;;;;;;13.00;88.58;101061.69;5026418;28;1294;-81
2023/07/26 05:46:26;;;;;;;;;;;;;;;13.03;88.92;101063.22;5007493;28;1367;-81
2023/07/26 05:48:51;;;;;;;;;;;;;;;13.05;88.15;101066.50;5006209;28;1482;-82
2023/07/26 05:51:16;;;;;;;;;;;;;;;13.07;88.79;101064.59;5012975;28;1246;-81
2023/07/26 05:53:42;;;;;;;;;;;;;;;13.10;88.63;101073.94;5014998;28;1082;-81
2023/07/26 05:56:07;;;;;;;;;;;;;;;13.14;88.50;101070.91;5044772;28;1929;-81
2023/07/26 05:58:32;;;;;;;;;;;;;;;13.19;88.70;101073.94;5015876;28;1381;-81
2023/07/26 06:00:58;;;;;;;;;;;;;;;13.25;88.64;101081.25;5003205;28;1150;-81
2023/07/26 06:03:23;;;;;;;;;;;;;;;13.33;88.77;101084.94;5019339;28;1209;-81
2023/07/26 06:05:48;;;;;;;;;;;;;;;13.38;88.70;101099.22;5005991;28;1181;-81
2023/07/26 06:08:14;;;;;;;;;;;;;;;13.45;89.18;101096.88;5010043;28;1309;-80
2023/07/26 06:10:39;;;;;;;;;;;;;;;13.51;88.69;101101.53;5011527;28;1466;-81
2023/07/26 06:13:05;;;;;;;;;;;;;;;13.53;88.78;101102.22;5012380;28;1233;-81
2023/07/26 06:15:30;;;;;;;;;;;;;;;13.55;88.98;101095.91;5013930;28;1075;-81
2023/07/26 06:17:56;;;;;;;;;;;;;;;13.56;88.48;101096.72;5009709;28;1902;-81
2023/07/26 06:20:21;;;;;;;;;;;;;;;13.56;88.83;101107.16;5004677;28;1119;-81
2023/07/26 06:22:47;;;;;;;;;;;;;;;13.57;88.35;101114.00;5010759;28;1383;-81
2023/07/26 06:25:12;;;;;;;;;;;;;;;13.55;88.82;101110.72;5011669;28;2122;-81
2023/07/26 06:27:38;;;;;;;;;;;;;;;13.57;88.62;101113.19;5006145;28;1161;-81
2023/07/26 06:30:03;;;;;;;;;;;;;;;13.57;89.18;101124.44;5006598;28;1195;-81
2023/07/26 06:32:28;;;;;;;;;;;;;;;13.56;88.51;101117.59;5012309;28;1790;-81
2023/07/26 06:34:54;;;;;;;;;;;;;;;13.57;89.02;101121.00;5040579;28;1372;-81
2023/07/26 06:37:19;;;;;;;;;;;;;;;13.57;88.79;101124.44;5009594;28;1898;-81
2023/07/26 06:39:45;;;;;;;;;;;;;;;13.56;88.81;101133.22;5006619;28;1287;-81
2023/07/26 06:42:10;;;;;;;;;;;;;;;13.57;89.02;101134.84;5004088;28;1331;-81
2023/07/26 06:44:37;;;;;;;;;;;;;;;13.58;89.36;101131.28;4974219;28;2599;-81
2023/07/26 06:47:02;;;;;;;;;;;;;;;13.58;89.34;101131.28;4973947;28;1633;-81
2023/07/26 06:49:27;;;;;;;;;;;;;;;13.59;89.26;101138.16;4991155;28;1323;-81
2023/07/26 06:51:53;;;;;;;;;;;;;;;13.59;88.99;101138.16;4972765;28;1296;-81
2023/07/26 06:54:18;;;;;;;;;;;;;;;13.57;89.46;101124.44;4993159;28;1489;-81
2023/07/26 06:56:43;;;;;;;;;;;;;;;13.57;89.08;101145.28;4970237;28;1965;-81
2023/07/26 06:59:12;;;;;;;;;;;;;;;13.53;89.21;101160.38;5156471;23;2605;-80
2023/07/26 07:01:37;;;;;;;;;;;;;;;13.51;89.28;101192.75;5062231;23;2570;-77
2023/07/26 07:04:02;;;;;;;;;;;;;;;13.49;90.34;101189.47;5039628;28;1588;-78
2023/07/26 07:06:27;;;;;;;;;;;;;;;13.48;90.28;101195.63;5043925;28;1533;-76
2023/07/26 07:08:53;;;;;;;;;;;;;;;13.34;87.69;101183.78;5043573;23;2372;-86
2023/07/26 07:11:18;;;;;;;;;;;;;;;13.08;88.22;101183.44;5043806;28;1452;-85
2023/07/26 07:13:43;;;;;;;;;;;;;;;13.01;88.79;101184.91;5043761;28;1292;-83
2023/07/26 07:16:08;;;;;;;;;;;;;;;13.01;88.51;101179.69;5047283;28;1918;-83
2023/07/26 07:18:33;;;;;;;;;;;;;;;13.01;89.27;101179.69;5048236;28;1154;-85
2023/07/26 07:21:00;;;;;;;;;;;;;;;13.00;89.12;101178.06;5051376;28;1119;-86
2023/07/26 07:23:27;;;;;;;;;;;;;;;12.92;88.70;101180.50;5049965;28;1225;-83
2023/07/26 07:25:52;;;;;;;;;;;;;;;12.89;88.89;101180.75;5052911;28;1146;-84
2023/07/26 07:28:17;;;;;;;;;;;;;;;12.87;89.16;101200.91;5046828;28;1141;-86
2023/07/26 07:30:43;;;;;;;;;;;;;;;12.81;89.29;101201.41;5050031;28;1197;-84
2023/07/26 07:33:09;;;;;;;;;;;;;;;12.80;89.58;101191.97;5055881;28;1353;-87
2023/07/26 07:35:34;;;;;;;;;;;;;;;12.81;89.88;101193.59;5044607;28;1295;-86
2023/07/26 07:37:59;;;;;;;;;;;;;;;12.82;90.40;101200.47;5028714;28;1906;-85
2023/07/26 07:40:24;;;;;;;;;;;;;;;12.77;90.38;101204.25;5049108;28;1262;-82
2023/07/26 07:42:49;;;;;;;;;;;;;;;12.81;90.20;101198.81;5047837;28;1204;-85
2023/07/26 07:45:15;;;;;;;;;;;;;;;12.86;90.42;101191.44;5028409;28;1287;-80
2023/07/26 07:47:40;;;;;;;;;;;;;;;12.91;90.30;101194.47;5046893;28;1194;-85
2023/07/26 07:50:06;;;;;;;;;;;;;;;12.94;90.93;101184.59;5036843;28;1248;-82
2023/07/26 07:52:32;;;;;;;;;;;;;;;12.97;91.10;101199.16;5043517;28;1428;-84
2023/07/26 07:54:57;;;;;;;;;;;;;;;12.99;90.99;101192.84;5062212;28;1301;-86
2023/07/26 07:57:22;;;;;;;;;;;;;;;13.04;92.07;101195.06;5048065;28;1894;-85
2023/07/26 07:59:47;;;;;;;;;;;;;;;13.06;91.87;101187.94;5049506;28;1182;-82
2023/07/26 08:02:13;;;;;;;;;;;;;;;13.10;91.62;101178.91;5048163;28;1142;-85
2023/07/26 08:04:41;;;;;;;;;;;;;;;13.19;91.91;101188.53;5025683;28;1427;-87
2023/07/26 08:07:06;;;;;;;;;;;;;;;13.23;91.71;101187.34;5026473;28;1165;-82
2023/07/26 08:09:32;;;;;;;;;;;;;;;13.34;92.31;101180.38;5025087;28;1290;-83
2023/07/26 08:11:57;;;;;;;;;;;;;;;13.44;91.94;101181.22;5022697;28;1375;-84
2023/07/26 08:14:23;;;;;;;;;;;;;;;13.57;92.60;101166.13;5030496;28;1101;-85
2023/07/26 08:16:48;;;;;;;;;;;;;;;13.69;92.39;101170.25;5049345;28;1897;-84
2023/07/26 08:19:13;;;;;;;;;;;;;;;13.79;92.20;101180.69;5031203;28;1329;-86
2023/07/26 08:21:38;;;;;;;;;;;;;;;13.91;92.43;101179.59;5042878;28;1295;-86
2023/07/26 08:24:04;;;;;;;;;;;;;;;14.05;92.72;101176.56;5047436;28;1539;-83
2023/07/26 08:26:29;;;;;;;;;;;;;;;14.20;92.90;101173.50;5026050;28;1383;-84
2023/07/26 08:28:54;;;;;;;;;;;;;;;14.32;91.84;101172.38;5031924;28;1437;-84
2023/07/26 08:31:20;;;;;;;;;;;;;;;14.43;90.88;101174.00;5046139;28;1145;-83
2023/07/26 08:33:45;;;;;;;;;;;;;;;14.51;91.36;101171.56;5049855;28;1723;-86
2023/07/26 08:36:10;;;;;;;;;;;;;;;14.66;91.89;101164.91;5044530;28;1922;-86
2023/07/26 08:38:35;;;;;;;;;;;;;;;14.78;91.27;101168.97;5046614;28;1542;-85
2023/07/26 08:41:01;;;;;;;;;;;;;;;14.93;91.12;101174.56;5028437;28;1758;-86
2023/07/26 08:43:29;;;;;;;;;;;;;;;15.05;91.19;101169.94;5047231;28;1158;-83
2023/07/26 08:45:55;;;;;;;;;;;;;;;15.22;91.51;101177.00;5046020;28;1311;-85
2023/07/26 08:48:20;;;;;;;;;;;;;;;15.36;91.03;101173.88;5048879;28;1190;-88
2023/07/26 08:50:46;;;;;;;;;;;;;;;15.51;91.28;101176.00;5047310;28;1197;-86
2023/07/26 08:53:11;;;;;;;;;;;;;;;15.59;89.62;101173.44;5046981;28;1438;-88
2023/07/26 08:55:37;;;;;;;;;;;;;;;15.65;91.03;101172.88;5042910;28;1294;-87
2023/07/26 08:58:03;;;;;;;;;;;;;;;15.79;90.49;101159.28;5046907;28;1918;-86
2023/07/26 09:00:29;;;;;;;;;;;;;;;15.90;90.58;101166.91;5046491;28;1279;-86
2023/07/26 09:02:58;;;;;;;;;;;;;;;16.00;89.90;101166.81;5045605;28;1605;-84
2023/07/26 09:05:24;;;;;;;;;;;;;;;16.12;89.80;101155.13;5045604;28;1518;-86
2023/07/26 09:07:51;;;;;;;;;;;;;;;16.24;90.17;101153.09;5026131;28;1461;-86
2023/07/26 09:10:21;;;;;;;;;;;;;;;16.37;89.51;101150.88;5045210;28;952;-86
2023/07/26 09:12:48;;;;;;;;;;;;;;;16.44;89.14;101154.50;5044793;28;1396;-86
2023/07/26 09:15:14;;;;;;;;;;;;;;;16.57;88.79;101148.00;5042359;28;1332;-86
2023/07/26 09:17:41;;;;;;;;;;;;;;;16.67;88.63;101143.47;5048367;28;1910;-86
2023/07/26 09:20:17;;;;;;;;;;;;;;;16.76;88.16;101142.59;5045986;28;1098;-86
2023/07/26 09:22:43;;;;;;;;;;;;;;;16.84;88.28;101145.22;5044768;28;1238;-84
2023/07/26 09:25:08;;;;;;;;;;;;;;;16.96;87.52;101149.19;5046107;28;1419;-85
2023/07/26 09:27:42;;;;;;;;;;;;;;;17.02;87.69;101141.66;5040296;28;1212;-83
2023/07/26 09:30:07;;;;;;;;;;;;;;;17.15;87.65;101142.06;5044875;28;1389;-81
2023/07/26 09:32:33;;;;;;;;;;;;;;;17.35;86.55;101140.78;5048209;28;1463;-84
2023/07/26 09:35:04;;;;;;;;;;;;;;;17.42;86.38;101139.13;5040840;28;1827;-83
2023/07/26 09:37:30;;;;;;;;;;;;;;;17.37;85.92;101141.41;5045140;28;1897;-84
2023/07/26 09:39:55;;;;;;;;;;;;;;;17.38;85.72;101137.84;5047076;28;1774;-83
2023/07/26 09:42:20;;;;;;;;;;;;;;;17.42;85.75;101149.63;5049999;28;1192;-83
2023/07/26 09:44:47;;;;;;;;;;;;;;;17.37;85.41;101157.16;5032965;28;1182;-83
2023/07/26 09:47:14;;;;;;;;;;;;;;;17.18;84.02;101136.47;5026660;28;1533;-86
2023/07/26 09:49:48;;;;;;;;;;;;;;;16.98;84.69;101142.00;5022452;28;1439;-84
2023/07/26 09:52:15;;;;;;;;;;;;;;;16.75;85.22;101140.94;5026811;28;1417;-87
2023/07/26 09:54:41;;;;;;;;;;;;;;;16.53;85.14;101141.47;5044682;28;1299;-85
2023/07/26 09:57:06;;;;;;;;;;;;;;;16.40;85.28;101140.09;5046170;28;1953;-85
2023/07/26 09:59:33;;;;;;;;;;;;;;;16.31;85.49;101145.44;5026511;28;1307;-84
2023/07/26 10:02:01;;;;;;;;;;;;;;;16.24;85.60;101131.31;5046783;28;1145;-85
2023/07/26 10:04:32;;;;;;;;;;;;;;;16.19;85.44;101144.88;5045337;28;1287;-82
2023/07/26 10:07:00;;;;;;;;;;;;;;;16.24;86.24;101142.63;5027427;28;1486;-86
2023/07/26 10:09:26;;;;;;;;;;;;;;;16.42;86.59;101143.38;5027314;28;1189;-85
2023/07/26 10:11:52;;;;;;;;;;;;;;;16.54;86.23;101146.53;5045833;28;1215;-86
2023/07/26 10:14:19;;;;;;;;;;;;;;;16.58;85.85;101145.25;5028143;28;1520;-85
2023/07/26 10:16:44;;;;;;;;;;;;;;;16.62;86.00;101145.75;5046813;28;1963;-87
2023/07/26 10:19:11;;;;;;;;;;;;;;;16.65;86.03;101140.22;5046144;28;1158;-86
2023/07/26 10:21:36;;;;;;;;;;;;;;;16.82;87.03;101141.94;5028528;28;1421;-86
2023/07/26 10:24:03;;;;;;;;;;;;;;;17.03;86.98;101143.31;5024697;28;1178;-85
2023/07/26 10:26:29;;;;;;;;;;;;;;;17.24;85.65;101138.47;5023261;28;1396;-83
2023/07/26 10:28:59;;;;;;;;;;;;;;;17.41;86.68;101134.88;5042234;28;1098;-84
2023/07/26 10:31:24;;;;;;;;;;;;;;;17.63;85.37;101135.22;5043906;28;1241;-84
2023/07/26 10:33:52;;;;;;;;;;;;;;;17.77;83.70;101137.22;5043240;28;1130;-83
2023/07/26 10:36:17;;;;;;;;;;;;;;;18.00;81.93;101122.44;5037359;28;1961;-84
2023/07/26 10:38:49;;;;;;;;;;;;;;;18.00;80.39;101135.56;5046235;28;1111;-84
2023/07/26 10:41:24;;;;;;;;;;;;;;;18.04;80.33;101129.00;5026444;28;1498;-84
2023/07/26 10:43:49;;;;;;;;;;;;;;;17.93;79.46;101142.47;5045302;28;1315;-84
2023/07/26 10:46:15;;;;;;;;;;;;;;;18.11;75.72;101133.56;5043706;28;1137;-85
2023/07/26 10:48:40;;;;;;;;;;;;;;;17.96;77.39;101131.66;5023315;28;1599;-84
2023/07/26 10:51:21;;;;;;;;;;;;;;;18.02;76.58;101144.09;5042898;28;1427;-82
2023/07/26 10:53:46;;;;;;;;;;;;;;;18.13;76.86;101142.13;5044822;28;1170;-84
2023/07/26 10:56:17;;;;;;;;;;;;;;;18.25;74.96;101143.41;5023451;28;1965;-84
2023/07/26 10:59:03;;;;;;;;;;;;;;;18.47;73.16;101140.06;5027364;28;1514;-87
2023/07/26 11:01:37;;;;;;;;;;;;;;;18.37;72.88;101143.88;5034820;28;1163;-85
2023/07/26 11:04:08;;;;;;;;;;;;;;;18.54;73.29;101141.03;5046253;28;1221;-85
2023/07/26 11:06:54;;;;;;;;;;;;;;;18.56;70.99;101141.66;5025575;28;1508;-82
2023/07/26 11:09:38;;;;;;;;;;;;;;;18.40;71.81;101139.09;5042488;28;1130;-83
2023/07/26 11:12:09;;;;;;;;;;;;;;;18.36;70.64;101147.50;5028255;28;1317;-84
2023/07/26 11:14:35;;;;;;;;;;;;;;;18.29;69.32;101137.66;5040617;28;1184;-84
2023/07/26 11:17:08;;;;;;;;;;;;;;;18.12;66.83;101141.31;5044777;28;1977;-84
2023/07/26 11:19:43;;;;;;;;;;;;;;;17.96;69.10;101147.41;5040794;28;1416;-84
2023/07/26 11:22:08;;;;;;;;;;;;;;;18.04;68.96;101134.25;5043807;28;1194;-83
2023/07/26 11:24:34;;;;;;;;;;;;;;;18.17;69.40;101140.78;5041050;28;1293;-84
2023/07/26 11:27:03;;;;;;;;;;;;;;;18.41;69.75;101140.75;5042590;28;1185;-84
2023/07/26 11:29:28;;;;;;;;;;;;;;;18.66;69.67;101140.66;5044241;28;1161;-82
2023/07/26 11:31:53;;;;;;;;;;;;;;;18.91;68.01;101144.84;5041826;28;1110;-83
2023/07/26 11:34:21;;;;;;;;;;;;;;;19.03;67.29;101146.09;5024475;28;1526;-82
2023/07/26 11:36:47;;;;;;;;;;;;;;;19.24;67.63;101144.66;5039699;28;1879;-83
2023/07/26 11:39:25;;;;;;;;;;;;;;;19.42;67.50;101144.38;5041816;28;1521;-83
2023/07/26 11:41:53;;;;;;;;;;;;;;;19.59;65.03;101157.28;5042890;28;1176;-84
2023/07/26 11:44:22;;;;;;;;;;;;;;;19.65;64.82;101149.66;5041450;28;1249;-82
2023/07/26 11:46:47;;;;;;;;;;;;;;;19.78;65.23;101155.16;5025153;28;1572;-84
2023/07/26 11:49:20;;;;;;;;;;;;;;;20.07;58.94;101160.50;5048285;28;1260;-84
2023/07/26 11:51:45;;;;;;;;;;;;;;;19.63;61.64;101152.50;5045847;28;1157;-83
2023/07/26 11:54:10;;;;;;;;;;;;;;;19.45;61.79;101160.66;5050158;28;1497;-84
2023/07/26 11:56:37;;;;;;;;;;;;;;;19.30;61.44;101160.56;5044345;28;1887;-84
2023/07/26 11:59:03;;;;;;;;;;;;;;;19.21;60.62;101169.50;5051860;28;1189;-83
2023/07/26 12:01:28;;;;;;;;;;;;;;;19.25;59.74;101167.34;5031200;28;1190;-84
2023/07/26 12:03:54;;;;;;;;;;;;;;;19.29;60.62;101166.81;5044273;28;1478;-83
2023/07/26 12:06:22;;;;;;;;;;;;;;;19.50;59.13;101168.84;5025723;28;2168;-85
2023/07/26 12:08:47;;;;;;;;;;;;;;;19.33;60.43;101177.81;5024024;28;1391;-84
2023/07/26 12:11:16;;;;;;;;;;;;;;;19.41;61.12;101164.63;5049003;28;1476;-83
2023/07/26 12:13:41;;;;;;;;;;;;;;;19.65;58.96;101183.88;5044757;28;1222;-83
2023/07/26 12:16:09;;;;;;;;;;;;;;;19.75;55.56;101166.03;5042213;28;1174;-83
2023/07/26 12:18:34;;;;;;;;;;;;;;;19.52;57.61;101169.47;5048482;28;1006;-83
2023/07/26 12:21:04;;;;;;;;;;;;;;;19.60;58.55;101169.44;5027296;28;1243;-84
2023/07/26 12:23:49;;;;;;;;;;;;;;;19.76;57.99;101162.41;5046342;28;1101;-82
2023/07/26 12:26:14;;;;;;;;;;;;;;;19.96;58.32;101174.09;5045361;28;1125;-83
2023/07/26 12:28:39;;;;;;;;;;;;;;;19.86;58.69;101173.53;5056787;28;1500;-83
2023/07/26 12:31:05;;;;;;;;;;;;;;;19.80;58.02;101176.88;5047627;28;1277;-83
2023/07/26 12:33:30;;;;;;;;;;;;;;;19.59;58.40;101180.97;5046613;28;1196;-82
2023/07/26 12:35:55;;;;;;;;;;;;;;;19.47;57.39;101171.81;5028546;28;1251;-83
2023/07/26 12:38:24;;;;;;;;;;;;;;;19.46;57.70;101178.06;5048174;28;1949;-84
2023/07/26 12:40:50;;;;;;;;;;;;;;;19.51;59.64;101175.72;5029467;28;1364;-82
2023/07/26 12:43:34;;;;;;;;;;;;;;;19.72;58.95;101182.19;5046244;28;1108;-83